Time;durP1;ratioP1;P1;durP2;ratioP2;P2;SDS_P1;SDS_P2;PMS_P1;PMS_P2;Temp;Humidity;BMP_temperature;BMP_pressure;BME280_temperature;BME280_humidity;BME280_pressure;Samples;Min_cycle;Max_cycle;Signal;HPM_P1;HPM_P2
2024/03/29 00:02:23;;;;;;;14.48;2.63;;;9.70;99.90;;;;;;5073479;28;20131;-61
2024/03/29 00:04:49;;;;;;;18.40;3.88;;;9.70;99.90;;;;;;5072691;28;20045;-61
2024/03/29 00:07:15;;;;;;;15.15;2.78;;;9.70;99.90;;;;;;5072968;28;20041;-61
2024/03/29 00:09:40;;;;;;;14.73;2.80;;;9.70;99.90;;;;;;5072910;28;20063;-62
2024/03/29 00:12:06;;;;;;;12.32;2.38;;;9.70;99.90;;;;;;5072897;28;20045;-60
2024/03/29 00:14:32;;;;;;;14.48;2.75;;;9.60;99.90;;;;;;5072943;28;20037;-60
2024/03/29 00:16:58;;;;;;;14.50;2.50;;;9.60;99.90;;;;;;5072398;28;20060;-62
2024/03/29 00:19:24;;;;;;;13.93;2.50;;;9.50;99.90;;;;;;5072671;28;20037;-62
2024/03/29 00:21:49;;;;;;;14.23;2.45;;;9.50;99.90;;;;;;5072605;28;20440;-61
2024/03/29 00:24:15;;;;;;;18.48;2.90;;;9.50;99.90;;;;;;5072580;28;20051;-62
2024/03/29 00:26:41;;;;;;;14.68;2.85;;;9.50;99.90;;;;;;5072586;28;20044;-61
2024/03/29 00:29:07;;;;;;;11.43;2.10;;;9.40;99.90;;;;;;5072697;28;20059;-61
2024/03/29 00:31:32;;;;;;;12.82;2.85;;;9.40;99.90;;;;;;5072432;28;20041;-61
2024/03/29 00:33:58;;;;;;;12.93;2.28;;;9.30;99.90;;;;;;5072469;28;20059;-61
2024/03/29 00:36:24;;;;;;;15.20;2.28;;;9.30;99.90;;;;;;5072211;28;20041;-61
2024/03/29 00:38:50;;;;;;;17.90;2.95;;;9.30;99.90;;;;;;5072471;28;20479;-61
2024/03/29 00:41:15;;;;;;;15.27;2.17;;;9.30;99.90;;;;;;5072528;28;20052;-61
2024/03/29 00:43:41;;;;;;;20.10;2.95;;;9.20;99.90;;;;;;5072433;28;20162;-61
2024/03/29 00:46:07;;;;;;;11.35;2.08;;;9.20;99.90;;;;;;5072358;28;20498;-61
2024/03/29 00:48:33;;;;;;;12.35;2.10;;;9.10;99.90;;;;;;5072588;28;20044;-61
2024/03/29 00:50:58;;;;;;;11.70;2.03;;;9.10;99.90;;;;;;5072513;28;20039;-61
2024/03/29 00:53:24;;;;;;;9.68;2.10;;;9.00;99.90;;;;;;5072349;28;20067;-61
2024/03/29 00:55:50;;;;;;;11.65;2.17;;;9.00;99.90;;;;;;5072343;28;20389;-61
2024/03/29 00:58:16;;;;;;;10.73;1.90;;;9.00;99.90;;;;;;5072522;28;20098;-61
2024/03/29 01:00:41;;;;;;;10.30;1.60;;;8.90;99.90;;;;;;5072403;28;20041;-61
2024/03/29 01:03:07;;;;;;;8.57;1.85;;;8.90;99.90;;;;;;5072081;28;20536;-61
2024/03/29 01:05:33;;;;;;;9.45;1.50;;;8.90;99.90;;;;;;5073851;28;20040;-61
2024/03/29 01:07:58;;;;;;;15.52;2.22;;;8.90;99.90;;;;;;5076381;28;20036;-62
2024/03/29 01:10:24;;;;;;;13.02;2.13;;;8.90;99.90;;;;;;5076244;28;20036;-61
2024/03/29 01:12:50;;;;;;;13.95;1.70;;;8.90;99.90;;;;;;5076189;28;20032;-61
2024/03/29 01:15:16;;;;;;;14.20;2.22;;;8.90;99.90;;;;;;5076005;28;20083;-61
2024/03/29 01:17:41;;;;;;;17.77;2.50;;;8.90;99.90;;;;;;5075863;28;20413;-61
2024/03/29 01:20:08;;;;;;;17.05;1.85;;;8.90;99.90;;;;;;5076115;28;20047;-61
2024/03/29 01:22:34;;;;;;;14.30;2.33;;;8.90;99.90;;;;;;5076242;28;20048;-61
2024/03/29 01:25:00;;;;;;;14.70;2.92;;;9.00;99.90;;;;;;5076017;28;20087;-60
2024/03/29 01:27:26;;;;;;;11.95;2.45;;;9.00;99.90;;;;;;5075744;28;20036;-61
2024/03/29 01:29:51;;;;;;;9.88;2.10;;;8.90;99.90;;;;;;5076037;28;20382;-62
2024/03/29 01:32:17;;;;;;;14.00;2.78;;;8.90;99.90;;;;;;5075409;28;20051;-60
2024/03/29 01:34:43;;;;;;;14.05;1.95;;;8.90;99.90;;;;;;5075707;28;20040;-61
2024/03/29 01:37:09;;;;;;;10.73;2.00;;;8.80;99.90;;;;;;5075867;28;20080;-61
2024/03/29 01:39:34;;;;;;;8.48;1.70;;;8.70;99.90;;;;;;5075912;28;20048;-60
2024/03/29 01:42:00;;;;;;;9.23;1.48;;;8.70;99.90;;;;;;5075858;28;20041;-61
2024/03/29 01:44:26;;;;;;;11.05;1.83;;;8.70;99.90;;;;;;5075655;28;20048;-61
2024/03/29 01:46:52;;;;;;;9.65;1.65;;;8.70;99.90;;;;;;5058667;28;20121;-61
2024/03/29 01:49:17;;;;;;;10.40;2.13;;;8.70;99.90;;;;;;5075475;28;20097;-61
2024/03/29 01:51:43;;;;;;;14.48;3.08;;;8.70;99.90;;;;;;5075389;28;20044;-61
2024/03/29 01:54:12;;;;;;;9.80;1.83;;;8.80;99.90;;;;;;5075375;28;20087;-62
2024/03/29 01:56:38;;;;;;;12.00;2.30;;;8.80;99.90;;;;;;5075008;28;20060;-61
2024/03/29 01:59:03;;;;;;;12.02;1.75;;;8.80;99.90;;;;;;5075521;28;20068;-61
2024/03/29 02:01:29;;;;;;;12.77;2.20;;;8.90;99.90;;;;;;5058894;28;20068;-61
2024/03/29 02:03:55;;;;;;;13.07;2.10;;;8.90;99.90;;;;;;5057441;28;20174;-61
2024/03/29 02:06:21;;;;;;;7.00;1.67;;;8.90;99.90;;;;;;5074435;28;20417;-61
2024/03/29 02:08:46;;;;;;;8.98;1.60;;;8.90;99.90;;;;;;5075186;28;20640;-62
2024/03/29 02:11:12;;;;;;;11.20;2.42;;;8.90;99.90;;;;;;5075323;28;20048;-63
2024/03/29 02:13:40;;;;;;;8.50;1.98;;;8.90;99.90;;;;;;5074281;28;20044;-63
2024/03/29 02:16:05;;;;;;;7.53;1.60;;;8.80;99.90;;;;;;5074105;28;20056;-63
2024/03/29 02:18:31;;;;;;;12.68;2.25;;;8.90;99.90;;;;;;5074334;28;20438;-63
2024/03/29 02:20:57;;;;;;;6.80;1.63;;;8.80;99.90;;;;;;5074886;28;20036;-64
2024/03/29 02:23:23;;;;;;;12.27;2.20;;;8.80;99.90;;;;;;5074729;28;20048;-64
2024/03/29 02:25:48;;;;;;;10.32;1.80;;;8.80;99.90;;;;;;5074884;28;20043;-63
2024/03/29 02:28:14;;;;;;;11.38;2.00;;;8.80;99.90;;;;;;5074926;28;20036;-63
2024/03/29 02:30:40;;;;;;;11.10;2.28;;;8.90;99.90;;;;;;5074755;28;20504;-63
2024/03/29 02:33:06;;;;;;;12.10;2.25;;;8.90;99.90;;;;;;5074917;28;20082;-63
2024/03/29 02:35:32;;;;;;;11.77;2.10;;;8.90;99.90;;;;;;5074515;28;20059;-63
2024/03/29 02:37:57;;;;;;;9.93;2.10;;;8.90;99.90;;;;;;5074931;28;20094;-63
2024/03/29 02:40:23;;;;;;;12.25;1.80;;;8.80;99.90;;;;;;5074709;28;20393;-64
2024/03/29 02:42:49;;;;;;;13.57;2.35;;;8.70;99.90;;;;;;5058012;28;20139;-64
2024/03/29 02:45:15;;;;;;;15.13;1.90;;;8.70;99.90;;;;;;5074380;28;20047;-64
2024/03/29 02:47:40;;;;;;;13.75;2.25;;;8.70;99.90;;;;;;5074206;28;20124;-64
2024/03/29 02:50:06;;;;;;;11.38;2.25;;;8.70;99.90;;;;;;5074190;28;20028;-68
2024/03/29 02:52:32;;;;;;;10.77;1.85;;;8.60;99.90;;;;;;5074531;28;20474;-69
2024/03/29 02:54:58;;;;;;;12.13;2.03;;;8.60;99.90;;;;;;5074441;28;20425;-69
2024/03/29 02:57:24;;;;;;;11.48;3.17;;;8.60;99.90;;;;;;5074248;28;20064;-69
2024/03/29 02:59:49;;;;;;;12.23;2.20;;;8.60;99.90;;;;;;5074312;28;20047;-69
2024/03/29 03:02:15;;;;;;;13.93;2.15;;;8.50;99.90;;;;;;5074045;28;20040;-70
2024/03/29 03:04:41;;;;;;;14.23;2.40;;;8.50;99.90;;;;;;5057357;28;20060;-69
2024/03/29 03:12:36;;;;;;;10.63;1.63;;;8.50;99.90;;;;;;5073766;28;20032;-70
2024/03/29 03:15:01;;;;;;;7.97;1.40;;;8.40;99.90;;;;;;5073761;28;20485;-69
2024/03/29 03:17:27;;;;;;;9.38;1.55;;;8.40;99.90;;;;;;5073695;28;20398;-70
2024/03/29 03:19:53;;;;;;;8.98;1.67;;;8.40;99.90;;;;;;5073931;28;20086;-70
2024/03/29 03:22:19;;;;;;;7.63;1.35;;;8.40;99.90;;;;;;5074156;28;20041;-70
2024/03/29 03:24:45;;;;;;;9.25;1.88;;;8.40;99.90;;;;;;5073670;28;20420;-70
2024/03/29 03:27:10;;;;;;;8.70;1.48;;;8.30;99.90;;;;;;5073593;28;20355;-70
2024/03/29 03:29:36;;;;;;;14.82;1.67;;;8.30;99.90;;;;;;5056489;28;20036;-70
2024/03/29 03:32:02;;;;;;;7.88;1.50;;;8.30;99.90;;;;;;5073560;28;20093;-70
2024/03/29 03:34:28;;;;;;;8.05;2.08;;;8.20;99.90;;;;;;5073866;28;20049;-70
2024/03/29 03:36:53;;;;;;;7.57;1.40;;;8.20;99.90;;;;;;5073746;28;20036;-71
2024/03/29 03:39:19;;;;;;;7.93;1.00;;;8.10;99.90;;;;;;5073433;28;20040;-70
2024/03/29 03:41:45;;;;;;;9.85;1.70;;;8.10;99.90;;;;;;5073203;28;20051;-69
2024/03/29 03:44:11;;;;;;;3.53;1.00;;;8.00;99.90;;;;;;5073538;28;20381;-70
2024/03/29 03:46:36;;;;;;;6.18;1.10;;;8.00;99.90;;;;;;5073043;28;20405;-70
2024/03/29 03:49:02;;;;;;;8.07;1.50;;;7.90;99.90;;;;;;5073273;28;20091;-71
2024/03/29 03:51:28;;;;;;;8.23;1.50;;;7.80;99.90;;;;;;5073313;28;20543;-71
2024/03/29 03:53:54;;;;;;;6.05;1.23;;;7.70;99.90;;;;;;5073182;28;20060;-70
2024/03/29 03:56:19;;;;;;;6.80;1.02;;;7.70;99.90;;;;;;5056011;28;20048;-70
2024/03/29 03:58:45;;;;;;;5.05;1.00;;;7.70;99.90;;;;;;5073111;28;20086;-70
2024/03/29 04:01:11;;;;;;;6.32;1.10;;;7.70;99.90;;;;;;5073313;28;20041;-70
2024/03/29 04:03:37;;;;;;;7.03;1.25;;;7.70;99.90;;;;;;5072353;28;20106;-69
2024/03/29 04:06:03;;;;;;;4.88;1.10;;;7.70;99.90;;;;;;5072244;28;20495;-69
2024/03/29 04:08:28;;;;;;;7.18;1.40;;;7.70;99.90;;;;;;5072236;28;20385;-70
2024/03/29 04:10:54;;;;;;;5.25;1.10;;;7.70;99.90;;;;;;5072366;28;20438;-69
2024/03/29 04:13:20;;;;;;;8.02;1.30;;;7.70;99.90;;;;;;5072404;28;20033;-69
2024/03/29 04:15:46;;;;;;;6.40;1.60;;;7.70;99.90;;;;;;5071748;28;20040;-69
2024/03/29 04:18:11;;;;;;;5.75;1.20;;;7.70;99.90;;;;;;5071912;28;20040;-70
2024/03/29 04:20:37;;;;;;;5.90;1.08;;;7.70;99.90;;;;;;5072094;28;20036;-69
2024/03/29 04:23:03;;;;;;;5.68;1.10;;;7.70;99.90;;;;;;5072032;28;20036;-69
2024/03/29 04:25:29;;;;;;;6.55;0.90;;;7.60;99.90;;;;;;5072063;28;20504;-69
2024/03/29 04:27:54;;;;;;;4.93;0.88;;;7.60;99.90;;;;;;5072277;28;20087;-70
2024/03/29 04:30:20;;;;;;;4.15;0.98;;;7.60;99.90;;;;;;5072228;28;20040;-70
2024/03/29 04:32:46;;;;;;;4.40;0.63;;;7.60;99.90;;;;;;5071930;28;20049;-69
2024/03/29 04:35:12;;;;;;;4.18;0.95;;;7.60;99.90;;;;;;5055431;28;20140;-69
2024/03/29 04:37:37;;;;;;;4.57;0.70;;;7.60;99.90;;;;;;5072164;28;20040;-70
2024/03/29 04:40:03;;;;;;;3.08;0.73;;;7.60;99.90;;;;;;5071395;28;20042;-69
2024/03/29 04:42:29;;;;;;;3.85;0.90;;;7.60;99.90;;;;;;5072160;28;20478;-69
2024/03/29 04:44:55;;;;;;;5.57;0.90;;;7.60;99.90;;;;;;5071602;28;20033;-69
2024/03/29 04:47:20;;;;;;;4.32;1.10;;;7.60;99.90;;;;;;5071451;28;20113;-69
2024/03/29 04:49:46;;;;;;;4.78;1.00;;;7.60;99.90;;;;;;5071961;28;20037;-69
2024/03/29 04:52:13;;;;;;;7.20;0.90;;;7.60;99.90;;;;;;5071817;28;20044;-69
2024/03/29 04:54:39;;;;;;;5.47;1.33;;;7.60;99.90;;;;;;5071959;28;20117;-69
2024/03/29 04:57:08;;;;;;;5.35;1.15;;;7.60;99.90;;;;;;5054576;28;20040;-69
2024/03/29 04:59:34;;;;;;;6.68;1.92;;;7.60;99.90;;;;;;5055144;28;20359;-69
2024/03/29 05:02:00;;;;;;;7.80;1.55;;;7.60;99.90;;;;;;5071727;28;20071;-69
2024/03/29 05:04:26;;;;;;;8.73;1.38;;;7.60;99.90;;;;;;5071743;28;20444;-69
2024/03/29 05:06:52;;;;;;;10.70;1.80;;;7.60;99.90;;;;;;5071895;28;20036;-70
2024/03/29 05:09:18;;;;;;;14.75;2.55;;;7.60;99.90;;;;;;5072191;28;20499;-70
2024/03/29 05:11:43;;;;;;;12.00;2.20;;;7.70;99.90;;;;;;5055559;28;20064;-70
2024/03/29 05:14:10;;;;;;;10.40;1.80;;;7.70;99.90;;;;;;5055284;28;20553;-70
2024/03/29 05:16:35;;;;;;;13.77;2.10;;;7.70;99.90;;;;;;5055009;28;20048;-69
2024/03/29 05:19:01;;;;;;;10.27;2.33;;;7.70;99.90;;;;;;5071696;28;20067;-69
2024/03/29 05:21:27;;;;;;;20.10;3.83;;;7.70;99.90;;;;;;5071702;28;20086;-69
2024/03/29 05:23:53;;;;;;;13.93;2.22;;;7.70;99.90;;;;;;5071834;28;20039;-69
2024/03/29 05:26:19;;;;;;;10.40;2.17;;;7.70;99.90;;;;;;5071687;28;20491;-69
2024/03/29 05:28:44;;;;;;;11.52;2.63;;;7.70;99.90;;;;;;5071377;28;20481;-70
2024/03/29 05:31:10;;;;;;;13.00;2.03;;;7.70;99.90;;;;;;5071324;28;20037;-69
2024/03/29 05:33:37;;;;;;;15.68;2.67;;;7.80;99.90;;;;;;5071338;28;20509;-69
2024/03/29 05:36:04;;;;;;;18.83;2.78;;;7.80;99.90;;;;;;5071272;28;20045;-69
2024/03/29 05:38:30;;;;;;;14.63;2.00;;;7.80;99.90;;;;;;5071530;28;20139;-69
2024/03/29 05:40:56;;;;;;;12.45;2.33;;;7.90;99.90;;;;;;5071482;28;20501;-70
2024/03/29 05:43:22;;;;;;;11.27;2.17;;;7.90;99.90;;;;;;5071936;28;20040;-70
2024/03/29 05:45:47;;;;;;;10.80;1.90;;;7.90;99.90;;;;;;5071205;28;20115;-70
2024/03/29 05:48:14;;;;;;;14.20;2.30;;;7.90;99.90;;;;;;5071717;28;20466;-70
2024/03/29 05:50:40;;;;;;;16.30;2.53;;;8.00;99.90;;;;;;5071636;28;20078;-70
2024/03/29 05:53:06;;;;;;;15.68;2.10;;;8.00;99.90;;;;;;5075161;28;20072;-70
2024/03/29 05:55:31;;;;;;;14.10;2.75;;;8.00;99.90;;;;;;5058403;28;20048;-70
2024/03/29 05:57:57;;;;;;;11.15;1.85;;;8.00;99.90;;;;;;5075112;28;20037;-71
2024/03/29 06:00:23;;;;;;;12.65;2.08;;;8.00;99.90;;;;;;5074735;28;20546;-71
2024/03/29 06:02:49;;;;;;;12.90;2.25;;;8.10;99.90;;;;;;5074839;28;20048;-70
2024/03/29 06:05:15;;;;;;;10.85;1.77;;;8.10;99.90;;;;;;5075048;28;20036;-70
2024/03/29 06:07:40;;;;;;;11.88;2.55;;;8.10;99.90;;;;;;5074932;28;20482;-71
2024/03/29 06:10:09;;;;;;;9.40;2.00;;;8.10;99.90;;;;;;5074998;28;20032;-71
2024/03/29 06:12:35;;;;;;;9.93;2.22;;;8.10;99.90;;;;;;5075098;28;20080;-71
2024/03/29 06:17:46;;;;;;;10.68;1.58;;;8.20;99.90;;;;;;5057454;28;20124;-71
2024/03/29 06:20:11;;;;;;;12.80;1.73;;;8.20;99.90;;;;;;5074431;28;20477;-71
2024/03/29 06:22:37;;;;;;;13.07;1.83;;;8.20;99.90;;;;;;5074763;28;20064;-72
2024/03/29 06:25:06;;;;;;;11.40;1.90;;;8.30;99.90;;;;;;5057961;28;20048;-70
2024/03/29 06:27:32;;;;;;;7.35;1.55;;;8.20;99.90;;;;;;5060551;28;20064;-70
2024/03/29 06:29:58;;;;;;;14.98;1.90;;;8.30;99.90;;;;;;5054303;28;20145;-71
2024/03/29 06:32:23;;;;;;;13.73;2.00;;;8.30;99.90;;;;;;5054611;28;20048;-71
2024/03/29 06:34:49;;;;;;;13.77;1.75;;;8.30;99.90;;;;;;5037817;28;20037;-71
2024/03/29 06:37:15;;;;;;;12.98;2.65;;;8.30;99.90;;;;;;5054346;28;20045;-72
2024/03/29 06:39:43;;;;;;;10.07;1.88;;;8.40;99.90;;;;;;5037070;28;20047;-70
2024/03/29 06:42:09;;;;;;;11.05;1.70;;;8.40;99.90;;;;;;5053688;28;20114;-70
2024/03/29 06:44:34;;;;;;;15.70;2.28;;;8.40;99.90;;;;;;5053761;28;20474;-70
2024/03/29 06:47:00;;;;;;;13.93;2.33;;;8.40;99.90;;;;;;5053788;28;20045;-70
2024/03/29 06:49:26;;;;;;;12.07;1.90;;;8.40;99.90;;;;;;5054036;28;20140;-70
2024/03/29 06:51:53;;;;;;;15.23;2.25;;;8.50;99.90;;;;;;5053587;28;20051;-71
2024/03/29 06:54:22;;;;;;;15.65;2.38;;;8.50;99.90;;;;;;5053678;28;20040;-70
2024/03/29 06:56:47;;;;;;;12.15;2.13;;;8.50;99.90;;;;;;5053567;28;20128;-70
2024/03/29 06:59:13;;;;;;;11.68;2.50;;;8.50;99.90;;;;;;5053720;28;20382;-70
2024/03/29 07:01:39;;;;;;;14.35;1.95;;;8.50;99.90;;;;;;5070426;28;20075;-70
2024/03/29 07:04:05;;;;;;;10.40;1.52;;;8.50;99.90;;;;;;5069392;28;20073;-70
2024/03/29 07:06:30;;;;;;;7.30;1.70;;;8.40;99.90;;;;;;5053705;28;20390;-70
2024/03/29 07:08:56;;;;;;;10.32;1.83;;;8.40;99.90;;;;;;5046218;28;20043;-70
2024/03/29 07:11:22;;;;;;;6.60;1.52;;;8.50;99.90;;;;;;5044022;28;20029;-69
2024/03/29 07:13:48;;;;;;;17.92;2.03;;;8.50;99.90;;;;;;5041688;28;20608;-69
2024/03/29 07:16:14;;;;;;;13.90;1.80;;;8.60;99.90;;;;;;5043109;28;20053;-70
2024/03/29 07:18:40;;;;;;;8.85;1.80;;;8.60;99.90;;;;;;5059143;28;20053;-70
2024/03/29 07:21:05;;;;;;;7.85;1.73;;;8.70;99.90;;;;;;5042646;28;20041;-70
2024/03/29 07:23:31;;;;;;;5.40;1.45;;;8.70;99.90;;;;;;5041114;28;20044;-70
2024/03/29 07:25:57;;;;;;;11.07;1.50;;;8.70;99.90;;;;;;5044988;28;20041;-70
2024/03/29 07:28:23;;;;;;;9.27;2.17;;;8.70;99.90;;;;;;5039268;28;20129;-71
2024/03/29 07:30:50;;;;;;;12.38;1.63;;;8.70;99.90;;;;;;5036092;28;20494;-70
2024/03/29 07:33:15;;;;;;;16.25;2.13;;;8.80;99.90;;;;;;5042517;28;20159;-70
2024/03/29 07:35:41;;;;;;;9.43;1.70;;;8.80;99.90;;;;;;5059723;28;20033;-70
2024/03/29 07:38:07;;;;;;;8.25;1.58;;;8.80;99.90;;;;;;5041154;28;20498;-69
2024/03/29 07:40:34;;;;;;;10.25;1.83;;;8.80;99.90;;;;;;5049012;28;20052;-70
2024/03/29 07:43:00;;;;;;;6.72;1.50;;;8.90;99.90;;;;;;5042125;28;20524;-70
2024/03/29 07:45:26;;;;;;;8.50;1.58;;;8.90;99.90;;;;;;5040082;28;20041;-69
2024/03/29 07:47:52;;;;;;;9.60;1.40;;;8.90;99.90;;;;;;5041071;28;20041;-70
2024/03/29 07:50:18;;;;;;;11.63;1.52;;;9.00;99.90;;;;;;5047248;28;20072;-70
2024/03/29 07:52:44;;;;;;;9.88;1.80;;;9.10;99.90;;;;;;5052371;28;20036;-69
2024/03/29 07:55:10;;;;;;;13.13;2.47;;;9.10;99.90;;;;;;5052984;28;20114;-69
2024/03/29 07:57:36;;;;;;;10.40;1.60;;;9.20;99.90;;;;;;5052321;28;20059;-69
2024/03/29 08:00:02;;;;;;;8.00;1.25;;;9.30;99.90;;;;;;5052717;28;20152;-60
2024/03/29 08:02:32;;;;;;;6.38;1.42;;;9.40;99.90;;;;;;5052621;28;20048;-60
2024/03/29 08:04:58;;;;;;;12.65;1.70;;;9.50;99.90;;;;;;5052340;28;20063;-60
2024/03/29 08:07:24;;;;;;;7.63;1.42;;;9.50;99.90;;;;;;5068723;28;20041;-60
2024/03/29 08:09:50;;;;;;;10.13;1.75;;;9.50;99.90;;;;;;5052540;28;20489;-60
2024/03/29 08:12:16;;;;;;;13.27;2.40;;;9.60;99.90;;;;;;5052495;28;20040;-60
2024/03/29 08:14:42;;;;;;;10.60;2.08;;;9.60;99.90;;;;;;5051793;28;20041;-60
2024/03/29 08:17:09;;;;;;;7.15;1.63;;;9.70;99.90;;;;;;5051954;28;20139;-61
2024/03/29 08:19:35;;;;;;;9.93;2.00;;;9.70;99.90;;;;;;5052386;28;20498;-61
2024/03/29 08:22:01;;;;;;;9.52;1.55;;;9.80;99.90;;;;;;5052162;28;20037;-61
2024/03/29 08:24:26;;;;;;;11.80;2.05;;;9.80;99.90;;;;;;5052295;28;20213;-61
2024/03/29 08:26:52;;;;;;;11.10;1.67;;;9.80;99.90;;;;;;5051878;28;20079;-63
2024/03/29 08:29:18;;;;;;;10.85;1.40;;;9.90;99.90;;;;;;5051989;28;20037;-63
2024/03/29 08:31:44;;;;;;;11.30;1.67;;;10.00;99.90;;;;;;5052067;28;20386;-63
2024/03/29 08:34:13;;;;;;;12.38;1.95;;;10.00;99.90;;;;;;5052005;28;20053;-63
2024/03/29 08:36:38;;;;;;;8.77;1.80;;;10.10;99.90;;;;;;5051615;28;20410;-63
2024/03/29 08:39:04;;;;;;;7.85;1.38;;;10.10;99.90;;;;;;5051971;28;20040;-63
2024/03/29 08:41:30;;;;;;;7.63;1.88;;;10.20;99.90;;;;;;5051814;28;20049;-62
2024/03/29 08:43:56;;;;;;;10.52;1.98;;;10.20;99.90;;;;;;5052042;28;20056;-63
2024/03/29 08:46:22;;;;;;;10.63;2.25;;;10.20;99.90;;;;;;5051430;28;20068;-64
2024/03/29 08:48:48;;;;;;;8.93;1.48;;;10.20;99.90;;;;;;5051445;28;20037;-64
2024/03/29 08:51:14;;;;;;;9.30;1.60;;;10.20;99.90;;;;;;5051427;28;20098;-61
2024/03/29 08:53:40;;;;;;;10.30;1.77;;;10.20;99.90;;;;;;5052079;28;20098;-61
2024/03/29 08:56:06;;;;;;;19.75;2.67;;;10.20;99.90;;;;;;5051582;28;20045;-60
2024/03/29 08:58:32;;;;;;;9.48;1.58;;;10.10;99.90;;;;;;5051869;28;20172;-60
2024/03/29 09:00:57;;;;;;;6.35;1.50;;;10.20;99.90;;;;;;5052147;28;20118;-60
2024/03/29 09:03:23;;;;;;;8.15;1.63;;;10.20;99.90;;;;;;5051530;28;20395;-61
2024/03/29 09:05:49;;;;;;;8.77;1.60;;;10.20;99.90;;;;;;5051657;28;20068;-61
2024/03/29 09:08:15;;;;;;;6.32;1.33;;;10.40;99.90;;;;;;5051404;28;20041;-61
2024/03/29 09:10:41;;;;;;;7.93;1.75;;;10.40;99.90;;;;;;5051716;28;20127;-69
2024/03/29 09:13:09;;;;;;;9.45;1.30;;;10.40;99.90;;;;;;5051836;28;20047;-70
2024/03/29 09:15:34;;;;;;;7.47;1.50;;;10.30;99.90;;;;;;5051207;28;20045;-70
2024/03/29 09:18:09;;;;;;;7.28;1.42;;;10.20;99.90;;;;;;5051845;28;20053;-69
2024/03/29 09:20:35;;;;;;;6.40;1.70;;;10.20;99.90;;;;;;5068519;28;20139;-70
2024/03/29 09:23:01;;;;;;;5.20;1.13;;;10.20;99.90;;;;;;5051680;28;20076;-69
2024/03/29 09:25:26;;;;;;;6.05;0.95;;;10.10;99.90;;;;;;5051287;28;20048;-70
2024/03/29 09:27:52;;;;;;;6.95;1.27;;;10.10;99.90;;;;;;5055487;28;20033;-64
2024/03/29 09:30:19;;;;;;;5.55;0.90;;;10.00;99.90;;;;;;5055212;28;20642;-63
2024/03/29 09:32:45;;;;;;;5.05;1.20;;;10.10;99.90;;;;;;5055301;28;20111;-63
2024/03/29 09:35:11;;;;;;;6.32;1.20;;;10.10;99.90;;;;;;5055139;28;20481;-63
2024/03/29 09:37:37;;;;;;;5.32;0.93;;;10.10;99.90;;;;;;5054684;28;20103;-63
2024/03/29 09:40:04;;;;;;;4.03;1.02;;;10.10;99.90;;;;;;5055063;28;20045;-63
2024/03/29 09:42:30;;;;;;;6.70;1.20;;;10.00;99.90;;;;;;5055697;28;20041;-63
2024/03/29 09:44:56;;;;;;;4.05;1.13;;;10.00;99.90;;;;;;5055276;28;20072;-63
2024/03/29 09:47:22;;;;;;;4.65;1.10;;;10.00;99.90;;;;;;5054845;28;20116;-63
2024/03/29 09:49:50;;;;;;;5.38;1.20;;;10.00;99.90;;;;;;5054879;28;20050;-63
2024/03/29 09:52:15;;;;;;;7.00;0.90;;;10.10;99.90;;;;;;5054928;28;20041;-63
2024/03/29 09:54:41;;;;;;;7.55;1.00;;;10.00;99.90;;;;;;5054979;28;20033;-63
2024/03/29 09:57:07;;;;;;;5.43;1.00;;;10.10;99.90;;;;;;5055122;28;20049;-63
2024/03/29 09:59:34;;;;;;;4.50;1.00;;;10.20;99.90;;;;;;5055091;28;20135;-63
2024/03/29 10:02:00;;;;;;;3.08;0.95;;;10.30;99.90;;;;;;5055034;28;20052;-62
2024/03/29 10:04:26;;;;;;;5.32;1.15;;;10.40;99.90;;;;;;5054715;28;20492;-62
2024/03/29 10:06:53;;;;;;;4.10;0.90;;;10.40;99.90;;;;;;5054242;28;20045;-63
2024/03/29 10:09:19;;;;;;;3.85;0.88;;;10.50;99.90;;;;;;5054404;28;20041;-65
2024/03/29 10:11:45;;;;;;;3.08;0.98;;;10.60;99.90;;;;;;5054253;28;20512;-65
2024/03/29 10:14:10;;;;;;;6.15;0.98;;;10.70;99.90;;;;;;5054828;28;20037;-65
2024/03/29 10:16:36;;;;;;;5.35;1.08;;;10.70;99.90;;;;;;5054014;28;21371;-63
2024/03/29 10:19:02;;;;;;;6.85;1.50;;;10.80;99.90;;;;;;5054336;28;20037;-62
2024/03/29 10:21:28;;;;;;;5.80;1.23;;;10.70;99.90;;;;;;5054225;28;20076;-64
2024/03/29 10:23:54;;;;;;;6.72;1.38;;;10.80;99.90;;;;;;5054203;28;20060;-63
2024/03/29 10:26:20;;;;;;;6.00;1.27;;;10.90;99.90;;;;;;5054268;28;20063;-64
2024/03/29 10:28:46;;;;;;;8.32;1.40;;;11.00;99.90;;;;;;5053988;28;20041;-63
2024/03/29 10:31:13;;;;;;;6.43;1.50;;;11.10;99.90;;;;;;5049560;28;20033;-62
2024/03/29 10:33:39;;;;;;;8.52;1.77;;;11.30;99.90;;;;;;5048576;28;20068;-63
2024/03/29 10:36:05;;;;;;;7.78;1.55;;;11.40;99.90;;;;;;5047103;28;20061;-65
2024/03/29 10:38:31;;;;;;;5.80;1.45;;;11.50;99.90;;;;;;5043303;28;20039;-65
2024/03/29 10:40:57;;;;;;;12.68;2.15;;;11.60;99.90;;;;;;5042413;28;20040;-65
2024/03/29 10:43:23;;;;;;;9.52;1.65;;;11.50;99.90;;;;;;5063321;28;20040;-66
2024/03/29 10:45:50;;;;;;;9.13;1.50;;;11.40;99.90;;;;;;5042313;28;20033;-65
2024/03/29 10:48:16;;;;;;;12.80;2.20;;;11.30;99.90;;;;;;5047931;28;20467;-64
2024/03/29 10:50:42;;;;;;;11.95;2.30;;;11.30;99.90;;;;;;5047917;28;20104;-64
2024/03/29 10:53:08;;;;;;;10.82;2.03;;;11.30;99.90;;;;;;5051004;28;20068;-65
2024/03/29 10:55:34;;;;;;;10.75;2.25;;;11.40;99.90;;;;;;5054123;28;20032;-65
2024/03/29 10:57:59;;;;;;;9.77;2.10;;;11.50;99.90;;;;;;5053782;28;20415;-65
2024/03/29 11:00:25;;;;;;;18.17;2.40;;;11.60;99.90;;;;;;5054024;28;20033;-65
2024/03/29 11:02:51;;;;;;;10.02;1.98;;;11.60;99.90;;;;;;5054391;28;20041;-65
2024/03/29 11:05:17;;;;;;;11.85;2.17;;;11.70;99.90;;;;;;5054107;28;20068;-65
2024/03/29 11:07:43;;;;;;;10.32;2.10;;;11.80;99.90;;;;;;5054268;28;20048;-65
2024/03/29 11:10:08;;;;;;;9.50;1.95;;;11.80;99.90;;;;;;5054179;28;20091;-65
2024/03/29 11:12:34;;;;;;;15.70;2.35;;;11.80;99.90;;;;;;5053797;28;20032;-65
2024/03/29 11:15:00;;;;;;;12.50;2.10;;;11.80;99.90;;;;;;5053608;28;20541;-65
2024/03/29 11:17:26;;;;;;;10.38;1.92;;;11.80;99.90;;;;;;5053279;28;20057;-65
2024/03/29 11:19:52;;;;;;;12.07;2.00;;;11.70;99.90;;;;;;5036817;28;20063;-65
2024/03/29 11:22:17;;;;;;;13.20;2.22;;;11.60;99.90;;;;;;5053110;28;20127;-66
2024/03/29 11:24:43;;;;;;;13.98;3.10;;;11.70;99.90;;;;;;5053617;28;20037;-65
2024/03/29 11:27:10;;;;;;;9.68;1.90;;;11.80;99.90;;;;;;5052906;28;20106;-65
2024/03/29 11:29:41;;;;;;;12.25;2.10;;;11.80;99.90;;;;;;5052376;28;20041;-65
2024/03/29 11:32:07;;;;;;;11.23;2.13;;;11.90;99.90;;;;;;5053009;28;20048;-65
2024/03/29 11:34:33;;;;;;;11.82;2.13;;;12.00;99.90;;;;;;5053635;28;20049;-65
2024/03/29 11:36:59;;;;;;;8.55;2.00;;;12.00;99.90;;;;;;5053148;28;20072;-65
2024/03/29 11:39:25;;;;;;;9.80;2.15;;;11.90;99.90;;;;;;5053132;28;20059;-65
2024/03/29 11:41:50;;;;;;;10.90;2.40;;;12.00;99.90;;;;;;5053330;28;20082;-65
2024/03/29 11:44:16;;;;;;;9.30;2.15;;;12.10;99.90;;;;;;5052476;28;20041;-65
2024/03/29 11:46:42;;;;;;;7.07;1.70;;;12.20;99.90;;;;;;5052968;28;20041;-65
2024/03/29 11:49:08;;;;;;;10.07;1.85;;;12.20;99.90;;;;;;5053109;28;20521;-64
2024/03/29 11:51:33;;;;;;;7.20;1.65;;;12.20;99.90;;;;;;5052754;28;20429;-64
2024/03/29 11:53:59;;;;;;;10.95;2.40;;;12.30;99.90;;;;;;5035992;28;20127;-65
2024/03/29 11:56:25;;;;;;;8.48;1.75;;;12.30;99.90;;;;;;5053105;28;20087;-65
2024/03/29 11:58:51;;;;;;;8.18;2.28;;;12.30;99.90;;;;;;5052639;28;20537;-65
2024/03/29 12:01:17;;;;;;;7.55;1.70;;;12.20;99.90;;;;;;5052299;28;20041;-64
2024/03/29 12:03:42;;;;;;;14.35;1.88;;;12.20;99.90;;;;;;5035571;28;20055;-64
2024/03/29 12:06:08;;;;;;;8.30;1.60;;;12.10;99.90;;;;;;5052346;28;20033;-64
2024/03/29 12:08:34;;;;;;;10.23;1.65;;;12.00;99.90;;;;;;5051833;28;20029;-65
2024/03/29 12:11:00;;;;;;;6.18;1.50;;;12.10;99.90;;;;;;5052157;28;20439;-65
2024/03/29 12:13:25;;;;;;;7.30;1.33;;;12.10;99.90;;;;;;5051438;28;20032;-66
2024/03/29 12:15:51;;;;;;;9.93;1.75;;;12.10;99.90;;;;;;5050773;28;20044;-65
2024/03/29 12:18:17;;;;;;;6.95;2.40;;;12.20;99.90;;;;;;5051557;28;20059;-66
2024/03/29 12:20:46;;;;;;;6.75;1.55;;;12.20;99.90;;;;;;5051682;28;20064;-66
2024/03/29 12:23:13;;;;;;;9.30;1.50;;;12.20;99.90;;;;;;5051601;28;20049;-66
2024/03/29 12:25:39;;;;;;;10.63;1.35;;;12.20;99.90;;;;;;5051961;28;20033;-66
2024/03/29 12:28:05;;;;;;;9.90;1.60;;;12.20;99.90;;;;;;5052335;28;20060;-66
2024/03/29 12:30:30;;;;;;;8.15;1.55;;;12.20;99.90;;;;;;5052197;28;20120;-66
2024/03/29 12:32:56;;;;;;;8.60;1.77;;;12.30;99.90;;;;;;5051993;28;20033;-66
2024/03/29 12:35:22;;;;;;;7.13;1.60;;;12.30;99.90;;;;;;5052049;28;20501;-66
2024/03/29 12:37:48;;;;;;;11.10;1.90;;;12.20;99.90;;;;;;5052123;28;20045;-66
2024/03/29 12:40:18;;;;;;;8.40;1.98;;;12.20;99.90;;;;;;5051482;28;20478;-67
2024/03/29 12:42:44;;;;;;;5.32;1.95;;;12.30;99.90;;;;;;5051955;28;20098;-66
2024/03/29 12:45:10;;;;;;;6.60;1.58;;;12.40;99.90;;;;;;5051577;28;20048;-67
2024/03/29 12:47:36;;;;;;;5.45;1.30;;;12.50;99.90;;;;;;5035042;28;20370;-67
2024/03/29 12:50:03;;;;;;;9.77;1.70;;;12.60;99.90;;;;;;5052054;28;20087;-67